Time;durP1;ratioP1;P1;durP2;ratioP2;P2;SDS_P1;SDS_P2;PMS_P1;PMS_P2;Temp;Humidity;BMP_temperature;BMP_pressure;BME280_temperature;BME280_humidity;BME280_pressure;Samples;Min_cycle;Max_cycle;Signal;HPM_P1;HPM_P2
2023/06/13 00:01:11;;;;;;;7.43;6.40;;;;;;;18.96;42.73;95880.00;4982336;28;20516;-70
2023/06/13 00:03:37;;;;;;;9.30;6.00;;;;;;;19.40;41.89;95876.16;4969261;28;20177;-71
2023/06/13 00:06:02;;;;;;;5.93;5.43;;;;;;;19.33;42.03;95884.81;4968602;28;20177;-71
2023/06/13 00:08:35;;;;;;;6.23;5.63;;;;;;;18.89;42.22;95884.16;4968453;28;20665;-72
2023/06/13 00:11:00;;;;;;;8.40;7.17;;;;;;;18.61;43.36;95883.81;4968357;28;20201;-72
2023/06/13 00:13:26;;;;;;;8.10;6.00;;;;;;;18.36;43.56;95882.38;4967491;28;20764;-71
2023/06/13 00:15:54;;;;;;;7.90;5.97;;;;;;;18.61;43.07;95878.50;4967571;28;20647;-71
2023/06/13 00:18:22;;;;;;;7.23;6.43;;;;;;;18.89;43.30;95869.03;4967491;28;20240;-71
2023/06/13 00:20:48;;;;;;;7.90;5.90;;;;;;;18.86;42.94;95873.81;4968011;28;20436;-70
2023/06/13 00:23:15;;;;;;;9.57;6.63;;;;;;;17.96;44.51;95881.19;4967898;28;20487;-71
2023/06/13 00:25:40;;;;;;;6.13;5.53;;;;;;;18.01;45.05;95878.16;4967315;28;20417;-71
2023/06/13 00:28:05;;;;;;;8.47;6.10;;;;;;;17.66;45.89;95876.53;4967853;28;20746;-72
2023/06/13 00:30:31;;;;;;;6.17;5.57;;;;;;;17.75;46.21;95867.00;4967636;28;20562;-71
2023/06/13 00:32:56;;;;;;;6.83;6.10;;;;;;;17.32;46.34;95875.75;4967335;28;20682;-71
2023/06/13 00:35:22;;;;;;;6.23;5.33;;;;;;;17.61;46.19;95877.88;4967325;28;20228;-71
2023/06/13 00:37:50;;;;;;;6.93;6.23;;;;;;;17.51;46.68;95875.13;4967724;28;20691;-71
2023/06/13 00:40:17;;;;;;;6.23;5.40;;;;;;;17.27;47.38;95867.31;4968824;28;20229;-73
2023/06/13 00:42:43;;;;;;;6.43;5.50;;;;;;;17.88;45.26;95856.22;4967788;28;20420;-70
2023/06/13 00:45:25;;;;;;;7.47;6.63;;;;;;;17.76;46.21;95861.56;4967146;28;21197;-73
2023/06/13 00:47:58;;;;;;;6.63;5.93;;;;;;;17.43;46.62;95862.44;4967427;28;20178;-71
2023/06/13 00:50:30;;;;;;;8.87;5.60;;;;;;;17.52;46.18;95859.06;4967416;28;20425;-73
2023/06/13 00:52:58;;;;;;;5.97;5.37;;;;;;;16.88;47.55;95861.50;4967097;28;20435;-73
2023/06/13 00:55:25;;;;;;;6.73;6.10;;;;;;;16.69;48.20;95860.25;4967022;28;20421;-72
2023/06/13 00:57:55;;;;;;;7.10;6.30;;;;;;;16.52;49.08;95861.53;4967204;28;21295;-72
2023/06/13 01:00:22;;;;;;;7.13;6.40;;;;;;;16.46;49.19;95861.16;4967195;28;20923;-72
2023/06/13 01:02:48;;;;;;;6.40;5.80;;;;;;;16.82;48.28;95861.97;4967004;28;20856;-74
2023/06/13 01:05:13;;;;;;;6.40;5.37;;;;;;;16.55;48.46;95867.56;4966884;28;20596;-69
2023/06/13 01:07:40;;;;;;;7.53;5.60;;;;;;;16.53;49.03;95862.38;4967081;28;20173;-72
2023/06/13 01:10:07;;;;;;;7.97;6.10;;;;;;;16.66;48.52;95860.47;4966859;28;20304;-73
2023/06/13 01:12:40;;;;;;;6.77;5.47;;;;;;;16.43;48.98;95856.09;4967295;28;20925;-71
2023/06/13 01:15:05;;;;;;;8.37;6.50;;;;;;;16.16;49.72;95854.59;4967026;28;20412;-71
2023/06/13 01:17:35;;;;;;;6.20;5.10;;;;;;;16.00;50.27;95851.38;4966830;28;20487;-71
2023/06/13 01:20:10;;;;;;;7.27;6.57;;;;;;;15.83;50.75;95853.47;4967259;28;20324;-71
2023/06/13 01:22:48;;;;;;;7.30;6.57;;;;;;;16.17;50.37;95850.13;4966715;28;20495;-71
2023/06/13 01:25:37;;;;;;;8.50;6.20;;;;;;;15.97;50.25;95844.53;4968898;28;20866;-72
2023/06/13 01:28:06;;;;;;;7.93;5.50;;;;;;;15.87;50.56;95839.06;4970990;28;21258;-72
2023/06/13 01:30:34;;;;;;;6.40;5.80;;;;;;;15.88;50.51;95845.19;4971093;28;20962;-71
2023/06/13 01:33:00;;;;;;;6.97;6.00;;;;;;;16.03;49.88;95840.56;4970673;28;20507;-72
2023/06/13 01:35:27;;;;;;;6.90;6.20;;;;;;;16.15;49.81;95844.09;4970874;28;20922;-72
2023/06/13 01:37:52;;;;;;;9.43;6.70;;;;;;;16.09;50.13;95837.47;4970963;28;20464;-71
2023/06/13 01:40:17;;;;;;;7.13;6.20;;;;;;;16.05;49.81;95838.66;4971305;28;20466;-72
2023/06/13 01:42:43;;;;;;;6.37;5.73;;;;;;;16.08;49.69;95826.00;4979990;28;20177;-74
2023/06/13 01:45:09;;;;;;;7.17;5.57;;;;;;;16.24;49.60;95827.53;4990918;28;20177;-73
2023/06/13 01:47:43;;;;;;;6.33;5.77;;;;;;;16.36;48.59;95837.19;4987531;28;20189;-74
2023/06/13 01:50:27;;;;;;;10.27;6.70;;;;;;;15.82;50.49;95827.97;4985090;28;20429;-72
2023/06/13 01:53:04;;;;;;;10.40;5.60;;;;;;;15.62;50.90;95831.22;4984206;28;20436;-72
2023/06/13 01:55:38;;;;;;;7.17;5.87;;;;;;;15.70;50.61;95825.34;4971042;28;20479;-73
2023/06/13 01:58:10;;;;;;;7.57;5.80;;;;;;;15.68;50.66;95822.81;4984980;28;20503;-72
2023/06/13 02:00:40;;;;;;;6.57;5.80;;;;;;;15.70;50.36;95831.50;4970410;28;20503;-73
2023/06/13 02:03:06;;;;;;;6.10;5.17;;;;;;;16.67;48.02;95817.13;4970206;28;20501;-71
2023/06/13 02:05:31;;;;;;;8.47;6.47;;;;;;;15.82;49.50;95827.13;4969953;28;20467;-70
2023/06/13 02:07:57;;;;;;;8.23;6.10;;;;;;;16.10;49.36;95825.91;4970020;28;21002;-71
2023/06/13 02:10:23;;;;;;;6.53;5.83;;;;;;;16.14;49.08;95824.72;4969915;28;20196;-72
2023/06/13 02:12:49;;;;;;;7.43;6.47;;;;;;;15.86;49.54;95821.50;4969845;28;20424;-71
2023/06/13 02:15:15;;;;;;;6.57;5.97;;;;;;;15.98;49.28;95818.91;4969527;28;20408;-72
2023/06/13 02:17:40;;;;;;;5.13;4.60;;;;;;;15.75;50.59;95823.25;4969929;28;20256;-72
2023/06/13 02:20:06;;;;;;;5.73;5.13;;;;;;;15.73;49.76;95820.72;4969941;28;20189;-73
2023/06/13 02:22:32;;;;;;;8.97;5.97;;;;;;;16.24;48.23;95815.13;4969771;28;20217;-71
2023/06/13 02:24:58;;;;;;;6.10;5.50;;;;;;;15.73;49.60;95809.28;4969392;28;20519;-71
2023/06/13 02:27:23;;;;;;;10.20;5.90;;;;;;;15.43;50.72;95815.84;4970101;28;20174;-71
2023/06/13 02:29:49;;;;;;;6.10;5.07;;;;;;;14.99;51.75;95812.78;4969489;28;20197;-70
2023/06/13 02:32:15;;;;;;;6.77;5.60;;;;;;;15.15;51.54;95815.19;4969647;28;20227;-72
2023/06/13 02:34:40;;;;;;;7.67;5.50;;;;;;;15.54;50.70;95809.75;4969131;28;20261;-71
2023/06/13 02:37:06;;;;;;;5.63;4.87;;;;;;;15.53;50.37;95816.84;4969074;28;21073;-71
2023/06/13 02:39:31;;;;;;;7.13;5.83;;;;;;;15.37;50.94;95818.91;4969337;28;20259;-72
2023/06/13 02:41:56;;;;;;;10.67;6.13;;;;;;;14.95;51.90;95821.03;4969559;28;20166;-74
2023/06/13 02:44:22;;;;;;;6.57;5.87;;;;;;;14.88;52.21;95815.34;4969193;28;20178;-72
2023/06/13 02:46:47;;;;;;;9.17;5.20;;;;;;;15.00;52.21;95821.53;4969257;28;20189;-72
2023/06/13 02:49:12;;;;;;;15.03;5.83;;;;;;;15.07;51.77;95827.25;4969281;28;20907;-71
2023/06/13 02:51:38;;;;;;;6.47;4.70;;;;;;;14.84;52.28;95820.97;4969433;28;20311;-71
2023/06/13 02:54:04;;;;;;;6.17;5.20;;;;;;;15.29;51.28;95822.13;4969043;28;20256;-72
2023/06/13 02:56:29;;;;;;;5.70;4.87;;;;;;;15.14;51.53;95817.91;4969144;28;21002;-71
2023/06/13 02:58:55;;;;;;;7.20;5.57;;;;;;;14.96;51.99;95814.81;4969040;28;20265;-73
2023/06/13 03:01:20;;;;;;;7.70;5.80;;;;;;;14.96;51.68;95817.44;4968971;28;20741;-71
2023/06/13 03:03:48;;;;;;;7.63;5.80;;;;;;;15.05;51.82;95814.16;4968933;28;20223;-71
2023/06/13 03:06:17;;;;;;;10.23;5.77;;;;;;;14.88;52.21;95822.41;4969208;28;20217;-71
2023/06/13 03:08:43;;;;;;;7.77;6.43;;;;;;;14.74;52.33;95815.44;4969240;28;20405;-71
2023/06/13 03:11:09;;;;;;;7.87;5.50;;;;;;;14.53;53.14;95821.25;4969053;28;20463;-74
2023/06/13 03:13:34;;;;;;;6.50;5.30;;;;;;;15.05;52.06;95824.72;4968634;28;20726;-71
2023/06/13 03:16:02;;;;;;;5.97;5.37;;;;;;;14.80;52.17;95826.44;4968949;28;20190;-73
2023/06/13 03:18:27;;;;;;;5.80;5.20;;;;;;;14.55;53.10;95834.38;4969054;28;20190;-73
2023/06/13 03:20:53;;;;;;;5.40;4.90;;;;;;;14.79;52.13;95837.97;4969108;28;20441;-73
2023/06/13 03:23:18;;;;;;;10.07;6.30;;;;;;;14.56;52.90;95842.19;4969535;28;20186;-72
2023/06/13 03:25:44;;;;;;;7.07;5.47;;;;;;;14.44;53.24;95843.00;4968865;28;20243;-72
2023/06/13 03:28:10;;;;;;;7.67;6.17;;;;;;;14.38;53.41;95846.03;4968736;28;20552;-71
2023/06/13 03:30:37;;;;;;;8.23;5.50;;;;;;;14.70;52.46;95835.97;4968511;28;20443;-72
2023/06/13 03:33:02;;;;;;;5.57;5.07;;;;;;;14.76;52.25;95839.97;4968460;28;20237;-70
2023/06/13 03:35:28;;;;;;;7.67;5.77;;;;;;;15.30;50.68;95839.66;4968640;28;20508;-71
2023/06/13 03:37:53;;;;;;;6.33;5.67;;;;;;;14.97;51.77;95843.75;4968686;28;20256;-73
2023/06/13 03:40:18;;;;;;;6.77;5.00;;;;;;;15.18;51.36;95845.84;4968465;28;20273;-73
2023/06/13 03:42:44;;;;;;;6.33;5.03;;;;;;;15.96;48.80;95839.34;4968543;28;20259;-73
2023/06/13 03:45:10;;;;;;;7.60;5.30;;;;;;;15.41;49.90;95844.19;4968025;28;20173;-71
2023/06/13 03:47:35;;;;;;;16.03;6.53;;;;;;;15.77;48.98;95848.63;4981842;28;20188;-72
2023/06/13 03:50:01;;;;;;;6.93;5.40;;;;;;;15.20;50.08;95844.75;4968194;28;20564;-73
2023/06/13 03:52:26;;;;;;;7.43;5.00;;;;;;;15.69;49.85;95842.19;4968042;28;20212;-71
2023/06/13 03:54:52;;;;;;;8.87;5.83;;;;;;;15.14;50.98;95836.41;4967996;28;20205;-74
2023/06/13 03:57:17;;;;;;;5.73;4.73;;;;;;;15.06;50.74;95839.63;4968257;28;20221;-73
2023/06/13 03:59:43;;;;;;;7.27;5.23;;;;;;;15.86;48.61;95840.00;4968187;28;20194;-70
2023/06/13 04:02:08;;;;;;;5.20;4.60;;;;;;;16.10;48.55;95844.44;4967847;28;20953;-73
2023/06/13 04:04:35;;;;;;;5.63;5.00;;;;;;;15.24;49.87;95835.66;4967671;28;20173;-71
2023/06/13 04:07:04;;;;;;;6.10;5.53;;;;;;;15.92;48.46;95835.22;4967909;28;20170;-70
2023/06/13 04:09:30;;;;;;;6.40;5.30;;;;;;;15.85;48.01;95840.13;4967948;28;20404;-71
2023/06/13 04:11:55;;;;;;;10.30;6.33;;;;;;;15.59;49.13;95840.22;4967927;28;20926;-71
2023/06/13 04:14:20;;;;;;;7.00;5.30;;;;;;;15.75;48.85;95837.31;4967584;28;20281;-72
2023/06/13 04:16:46;;;;;;;6.13;5.40;;;;;;;16.35;47.36;95838.16;4967986;28;20205;-72
2023/06/13 04:19:18;;;;;;;7.93;5.13;;;;;;;16.24;46.90;95831.00;4967883;28;20173;-72
2023/06/13 04:21:45;;;;;;;8.97;4.93;;;;;;;16.64;46.90;95827.97;4967816;28;20612;-72
2023/06/13 04:24:12;;;;;;;9.70;6.10;;;;;;;16.83;45.49;95839.81;4967219;28;20413;-73
2023/06/13 04:26:37;;;;;;;9.80;5.47;;;;;;;16.39;46.31;95838.75;4967394;28;20409;-73
2023/06/13 04:29:02;;;;;;;7.90;5.20;;;;;;;16.56;45.83;95842.75;4967785;28;20416;-71
2023/06/13 04:31:34;;;;;;;7.20;5.33;;;;;;;16.84;45.16;95842.38;4967554;28;20209;-70
2023/06/13 04:34:03;;;;;;;6.33;5.73;;;;;;;16.37;46.62;95849.47;4964260;28;20185;-73
2023/06/13 04:36:32;;;;;;;5.37;4.67;;;;;;;16.08;46.63;95843.72;4978076;28;20640;-69
2023/06/13 04:39:04;;;;;;;9.80;5.80;;;;;;;16.28;46.51;95853.66;4984543;28;21008;-71
2023/06/13 04:41:34;;;;;;;7.13;6.43;;;;;;;16.28;46.23;95855.47;4991740;28;20458;-72
2023/06/13 04:44:03;;;;;;;6.70;5.50;;;;;;;16.19;46.42;95848.22;5003815;28;20438;-72
2023/06/13 04:46:29;;;;;;;6.30;4.90;;;;;;;16.54;45.87;95847.34;4996031;28;20408;-72
2023/06/13 04:48:57;;;;;;;7.43;5.73;;;;;;;16.28;46.54;95853.66;4993283;28;20409;-72
2023/06/13 04:51:22;;;;;;;10.30;5.90;;;;;;;16.31;45.69;95847.28;4985097;28;20424;-71
2023/06/13 04:53:49;;;;;;;5.83;5.20;;;;;;;16.12;46.39;95839.88;4984541;28;20416;-74
2023/06/13 04:56:15;;;;;;;6.43;5.47;;;;;;;15.99;46.66;95847.03;4986008;28;20204;-71
2023/06/13 04:58:40;;;;;;;8.40;5.70;;;;;;;16.20;45.97;95842.78;4984534;28;20917;-72
2023/06/13 05:01:07;;;;;;;10.50;5.63;;;;;;;16.43;44.87;95849.00;4982832;28;20247;-73
2023/06/13 05:03:34;;;;;;;7.97;5.67;;;;;;;16.40;45.23;95865.13;4984162;28;20268;-71
2023/06/13 05:06:00;;;;;;;8.00;6.27;;;;;;;16.14;45.84;95864.44;4984126;28;20455;-72
2023/06/13 05:08:26;;;;;;;6.40;4.60;;;;;;;16.73;44.61;95856.41;4984409;28;20436;-73
2023/06/13 05:10:51;;;;;;;7.33;5.80;;;;;;;16.99;43.87;95853.56;4984093;28;20260;-71
2023/06/13 05:13:17;;;;;;;8.63;5.10;;;;;;;16.83;44.43;95863.69;4983956;28;20484;-72
2023/06/13 05:15:44;;;;;;;14.90;6.93;;;;;;;16.80;44.04;95859.47;4984245;28;20173;-72
2023/06/13 05:18:13;;;;;;;7.03;5.50;;;;;;;16.77;44.24;95858.81;4984992;28;20216;-73
2023/06/13 05:20:41;;;;;;;6.90;5.83;;;;;;;16.81;43.97;95855.00;4984052;28;20949;-74
2023/06/13 05:23:07;;;;;;;6.43;5.70;;;;;;;16.61;44.01;95865.28;4984114;28;20460;-74
2023/06/13 05:25:32;;;;;;;7.23;5.17;;;;;;;16.48;44.12;95868.03;4983910;28;20545;-72
2023/06/13 05:27:58;;;;;;;7.27;5.67;;;;;;;16.49;44.63;95869.72;4982596;28;20905;-72
2023/06/13 05:30:23;;;;;;;8.60;5.87;;;;;;;16.52;44.21;95868.66;4980067;28;20220;-72
2023/06/13 05:32:49;;;;;;;6.80;5.70;;;;;;;16.19;44.85;95864.94;4973447;28;20673;-72
2023/06/13 05:35:15;;;;;;;6.70;5.50;;;;;;;16.60;44.43;95860.94;4979270;28;20265;-73
2023/06/13 05:37:41;;;;;;;6.40;5.70;;;;;;;16.62;44.38;95871.44;4975926;28;20468;-72
2023/06/13 05:40:08;;;;;;;10.83;7.33;;;;;;;16.48;44.47;95865.38;4984116;28;20197;-72
2023/06/13 05:42:36;;;;;;;6.27;5.13;;;;;;;16.54;44.47;95874.66;4994542;28;20252;-74
2023/06/13 05:45:03;;;;;;;8.03;5.40;;;;;;;16.59;44.51;95861.91;4986515;28;20441;-73
2023/06/13 05:47:29;;;;;;;7.97;5.67;;;;;;;16.30;44.99;95862.31;4984715;28;20420;-74
2023/06/13 05:49:54;;;;;;;8.93;5.50;;;;;;;16.33;44.63;95866.53;4983466;28;20467;-73
2023/06/13 05:52:20;;;;;;;6.70;5.77;;;;;;;16.38;45.06;95868.84;4980290;28;20220;-74
2023/06/13 05:54:46;;;;;;;5.77;5.10;;;;;;;16.50;44.91;95871.41;4978753;28;20774;-76
2023/06/13 05:57:12;;;;;;;5.63;5.03;;;;;;;16.42;44.77;95860.56;4985143;28;20215;-75
2023/06/13 05:59:37;;;;;;;8.93;7.13;;;;;;;16.71;44.07;95860.97;4987791;28;20431;-74
2023/06/13 06:02:03;;;;;;;5.63;5.10;;;;;;;16.36;44.50;95862.81;4986680;28;20177;-71
2023/06/13 06:04:29;;;;;;;10.80;6.07;;;;;;;16.34;43.98;95862.09;4986147;28;20685;-72
2023/06/13 06:06:54;;;;;;;5.23;4.70;;;;;;;16.44;43.31;95868.38;4986336;28;20177;-73
2023/06/13 06:09:19;;;;;;;8.87;4.97;;;;;;;16.88;42.91;95858.84;4987551;28;20184;-74
2023/06/13 06:11:45;;;;;;;5.83;4.53;;;;;;;16.60;42.43;95854.81;4989150;28;20203;-74
2023/06/13 06:14:10;;;;;;;7.40;5.20;;;;;;;16.39;43.03;95859.94;4992493;28;20173;-72
2023/06/13 06:16:35;;;;;;;7.83;4.80;;;;;;;16.81;42.13;95863.78;4990542;28;20172;-74
2023/06/13 06:19:01;;;;;;;6.10;4.77;;;;;;;16.79;42.25;95852.44;4990008;28;20255;-75
2023/06/13 06:21:26;;;;;;;6.70;4.90;;;;;;;17.25;41.56;95863.94;4991686;28;20212;-75
2023/06/13 06:23:52;;;;;;;5.47;4.43;;;;;;;17.32;41.10;95857.19;4992564;28;20252;-74
2023/06/13 06:26:17;;;;;;;5.80;4.77;;;;;;;17.49;40.15;95871.75;4988599;28;20177;-74
2023/06/13 06:28:44;;;;;;;7.63;5.40;;;;;;;17.31;40.09;95866.09;4988386;28;20200;-73
2023/06/13 06:31:09;;;;;;;7.57;4.80;;;;;;;17.87;39.37;95870.50;4987737;28;20642;-72
2023/06/13 06:33:35;;;;;;;7.83;5.10;;;;;;;18.15;38.48;95859.28;4987265;28;20241;-72
2023/06/13 06:36:00;;;;;;;7.20;4.30;;;;;;;18.37;37.89;95863.63;4987814;28;20199;-75
2023/06/13 06:38:26;;;;;;;7.87;4.80;;;;;;;18.28;37.80;95864.41;4989875;28;20220;-73
2023/06/13 06:40:51;;;;;;;5.40;4.47;;;;;;;18.06;38.35;95862.69;4989428;28;20231;-73
2023/06/13 06:43:17;;;;;;;5.93;4.40;;;;;;;18.16;36.79;95855.66;4989291;28;20249;-74
2023/06/13 06:45:42;;;;;;;5.17;4.67;;;;;;;18.05;37.01;95862.81;4989259;28;20188;-72
2023/06/13 06:48:07;;;;;;;4.80;4.17;;;;;;;18.16;36.03;95862.78;4989675;28;20169;-74
2023/06/13 06:50:33;;;;;;;8.90;5.00;;;;;;;18.27;36.21;95854.75;4989080;28;20708;-72
2023/06/13 06:52:58;;;;;;;6.10;4.40;;;;;;;18.15;36.36;95855.78;4989354;28;20980;-72
2023/06/13 06:55:23;;;;;;;8.17;4.40;;;;;;;18.06;35.23;95852.06;4989304;28;20188;-73
2023/06/13 06:57:49;;;;;;;12.20;5.23;;;;;;;17.73;35.86;95880.38;4989441;28;20356;-75
2023/06/13 07:00:15;;;;;;;9.47;4.33;;;;;;;17.89;35.76;95879.19;4988780;28;20211;-74
2023/06/13 07:02:41;;;;;;;5.87;4.10;;;;;;;18.04;35.76;95866.44;4970471;28;20189;-73
2023/06/13 07:05:08;;;;;;;6.10;4.30;;;;;;;18.47;34.83;95863.72;4969130;28;20177;-73
2023/06/13 07:07:33;;;;;;;4.97;4.30;;;;;;;18.50;35.18;95857.31;4969543;28;20476;-73
2023/06/13 07:09:59;;;;;;;21.03;5.37;;;;;;;18.36;34.58;95872.59;4969145;28;20437;-74
2023/06/13 07:12:24;;;;;;;11.00;5.30;;;;;;;18.75;34.09;95851.59;4969372;28;20671;-73
2023/06/13 07:14:50;;;;;;;7.27;4.50;;;;;;;18.64;33.88;95859.66;4968779;28;20192;-73
2023/06/13 07:17:15;;;;;;;4.63;4.10;;;;;;;18.84;34.12;95852.66;4969108;28;20206;-74
2023/06/13 07:19:40;;;;;;;8.83;4.90;;;;;;;19.14;33.40;95835.88;4968997;28;20201;-75
2023/06/13 07:22:06;;;;;;;4.13;3.57;;;;;;;18.99;33.46;95843.38;4967647;28;20193;-73
2023/06/13 07:24:31;;;;;;;6.00;4.47;;;;;;;18.58;34.24;95844.22;4968721;28;20177;-75
2023/06/13 07:26:57;;;;;;;7.80;5.60;;;;;;;19.07;33.55;95832.06;4968733;28;20169;-72
2023/06/13 07:29:22;;;;;;;5.83;5.30;;;;;;;19.18;33.46;95841.75;4968662;28;20176;-73
2023/06/13 07:31:48;;;;;;;6.80;4.50;;;;;;;18.91;33.41;95839.69;4969347;28;20205;-74
2023/06/13 07:34:13;;;;;;;5.80;4.87;;;;;;;19.08;33.85;95840.88;4968643;28;20192;-73
2023/06/13 07:36:39;;;;;;;7.80;4.60;;;;;;;18.74;33.75;95841.94;4968332;28;20212;-74
2023/06/13 07:39:14;;;;;;;7.93;3.90;;;;;;;19.07;33.52;95842.69;4968736;28;20264;-73
2023/06/13 07:41:40;;;;;;;13.37;4.80;;;;;;;19.06;33.19;95841.00;4968722;28;20193;-73
2023/06/13 07:44:06;;;;;;;8.90;4.40;;;;;;;18.95;33.37;95839.28;4968327;28;20503;-73
2023/06/13 07:46:32;;;;;;;7.37;4.60;;;;;;;19.06;32.97;95837.50;4968786;28;20331;-74
2023/06/13 07:48:58;;;;;;;12.20;4.83;;;;;;;19.40;32.96;95841.56;4969456;28;20423;-72
2023/06/13 07:51:24;;;;;;;7.00;4.93;;;;;;;19.50;32.75;95828.28;4968964;28;20511;-72
2023/06/13 07:53:49;;;;;;;5.80;4.40;;;;;;;19.70;32.10;95831.88;4968717;28;20431;-72
2023/06/13 07:56:15;;;;;;;7.90;5.20;;;;;;;19.74;32.33;95822.59;4968595;28;20285;-73
2023/06/13 07:58:40;;;;;;;7.03;5.00;;;;;;;19.74;32.13;95825.28;4968973;28;20571;-72
2023/06/13 08:01:06;;;;;;;5.27;4.50;;;;;;;19.60;32.47;95820.31;4981046;28;20308;-72
2023/06/13 08:03:31;;;;;;;7.93;4.97;;;;;;;19.26;32.76;95823.31;4988048;28;20263;-72
2023/06/13 08:05:57;;;;;;;10.70;4.53;;;;;;;19.12;33.14;95821.84;4988792;28;20173;-72
2023/06/13 08:08:23;;;;;;;6.13;4.20;;;;;;;19.18;33.03;95820.47;4988998;28;20168;-72
2023/06/13 08:10:50;;;;;;;6.47;4.80;;;;;;;19.13;32.44;95825.34;4989152;28;20920;-72
2023/06/13 08:13:15;;;;;;;5.97;3.93;;;;;;;19.42;31.75;95842.28;4987901;28;20514;-72
2023/06/13 08:15:41;;;;;;;8.07;4.60;;;;;;;19.59;32.04;95830.13;4987953;28;20424;-72
2023/06/13 08:18:06;;;;;;;4.87;4.20;;;;;;;19.51;32.05;95832.59;4987373;28;20229;-72
2023/06/13 08:20:32;;;;;;;4.77;4.30;;;;;;;19.44;31.99;95842.97;4987646;28;20316;-74
2023/06/13 08:22:59;;;;;;;9.43;4.57;;;;;;;20.09;31.28;95823.91;4987637;28;20188;-71
2023/06/13 08:25:24;;;;;;;6.57;4.97;;;;;;;20.21;30.75;95816.63;4987122;28;20599;-73
2023/06/13 08:27:52;;;;;;;60.27;8.50;;;;;;;20.00;30.78;95816.75;4987393;28;20415;-72
2023/06/13 08:30:17;;;;;;;7.23;4.27;;;;;;;20.11;30.43;95813.13;4987184;28;20890;-70
2023/06/13 08:32:46;;;;;;;6.67;4.13;;;;;;;20.72;29.55;95812.78;4987145;28;20416;-73
2023/06/13 08:35:11;;;;;;;5.60;3.90;;;;;;;20.32;28.82;95808.47;4987117;28;20192;-72
2023/06/13 08:37:38;;;;;;;4.60;4.10;;;;;;;20.66;29.13;95818.69;4987509;28;20468;-72
2023/06/13 08:40:10;;;;;;;12.00;5.03;;;;;;;20.49;28.72;95822.91;4987483;28;20230;-73
2023/06/13 08:42:39;;;;;;;6.53;4.47;;;;;;;20.08;28.81;95809.75;4987114;28;20518;-74
2023/06/13 08:45:08;;;;;;;4.70;4.03;;;;;;;20.20;29.27;95818.44;4986672;28;20416;-72
2023/06/13 08:47:34;;;;;;;15.47;5.63;;;;;;;19.97;29.25;95831.19;4988164;28;20413;-72
2023/06/13 08:50:02;;;;;;;6.60;4.87;;;;;;;20.10;28.45;95812.25;4985255;28;20443;-72
2023/06/13 08:52:38;;;;;;;8.20;3.93;;;;;;;20.79;27.82;95802.38;4986517;28;20192;-72
2023/06/13 08:55:08;;;;;;;11.90;3.80;;;;;;;20.48;27.40;95811.41;4986262;28;20408;-73
2023/06/13 08:57:37;;;;;;;7.00;4.87;;;;;;;20.23;27.87;95807.50;4987241;28;20460;-74
2023/06/13 09:00:06;;;;;;;6.40;4.17;;;;;;;20.77;26.45;95813.19;4987162;28;20805;-72
2023/06/13 09:02:32;;;;;;;7.83;4.47;;;;;;;20.68;25.43;95812.22;4986800;28;20420;-73
2023/06/13 09:04:58;;;;;;;3.80;3.40;;;;;;;20.88;25.16;95806.84;4986474;28;20440;-72
2023/06/13 09:07:25;;;;;;;5.90;4.37;;;;;;;21.29;26.20;95792.22;4987025;28;20494;-73
2023/06/13 09:09:50;;;;;;;6.70;3.80;;;;;;;21.02;26.18;95797.53;4986964;28;20802;-73
2023/06/13 09:12:16;;;;;;;6.47;4.27;;;;;;;20.51;26.18;95795.13;4986933;28;20435;-72
2023/06/13 09:14:42;;;;;;;5.03;4.40;;;;;;;20.41;26.93;95796.97;4986457;28;20239;-73
2023/06/13 09:17:08;;;;;;;4.70;4.20;;;;;;;20.71;25.99;95803.09;4986437;28;20868;-73
2023/06/13 09:19:34;;;;;;;5.90;4.60;;;;;;;20.52;26.26;95796.78;4986637;28;20415;-73
2023/06/13 09:22:00;;;;;;;5.53;4.10;;;;;;;20.78;26.17;95800.69;4986743;28;20296;-72
2023/06/13 09:24:26;;;;;;;7.27;3.87;;;;;;;20.84;26.25;95800.13;4986800;28;20443;-72
2023/06/13 09:26:51;;;;;;;6.33;3.63;;;;;;;21.04;24.85;95791.06;4986774;28;20168;-74
2023/06/13 09:29:17;;;;;;;7.20;4.70;;;;;;;21.25;25.10;95798.81;4986406;28;20271;-72
2023/06/13 09:31:42;;;;;;;6.30;4.30;;;;;;;20.78;24.77;95800.69;4986524;28;20271;-73
2023/06/13 09:34:08;;;;;;;8.80;5.23;;;;;;;20.91;25.03;95801.22;4986511;28;20188;-72
2023/06/13 09:36:37;;;;;;;3.50;3.20;;;;;;;20.73;25.31;95801.13;4985095;28;20176;-74
2023/06/13 09:39:06;;;;;;;6.70;4.20;;;;;;;21.19;25.13;95795.91;4986598;28;20211;-72
2023/06/13 09:41:33;;;;;;;6.43;4.30;;;;;;;21.41;25.02;95794.72;4986406;28;21218;-73
2023/06/13 09:44:03;;;;;;;5.57;4.27;;;;;;;21.34;24.15;95792.59;4986726;28;20443;-73
2023/06/13 09:46:28;;;;;;;6.30;4.13;;;;;;;21.14;23.48;95796.34;4989248;28;20412;-74
2023/06/13 09:48:55;;;;;;;6.73;3.97;;;;;;;21.36;23.88;95795.97;4990503;28;20415;-72
2023/06/13 09:51:25;;;;;;;5.23;4.27;;;;;;;21.38;23.73;95795.81;4990375;28;20207;-72
2023/06/13 09:53:50;;;;;;;4.97;3.40;;;;;;;21.44;24.18;95799.75;4989928;28;20423;-73
2023/06/13 09:56:15;;;;;;;7.40;4.63;;;;;;;21.35;24.18;95788.09;4990363;28;20420;-73
2023/06/13 09:58:44;;;;;;;11.63;4.27;;;;;;;21.36;24.30;95785.28;4990148;28;20735;-73
2023/06/13 10:01:15;;;;;;;7.80;4.23;;;;;;;21.34;24.17;95773.91;4990940;28;20290;-73
2023/06/13 10:03:41;;;;;;;7.40;3.60;;;;;;;;;;4996203;28;20976;-73
2023/06/13 10:06:07;;;;;;;5.47;4.17;;;;;;;21.49;23.92;95776.94;4990585;28;20408;-73
2023/06/13 10:08:34;;;;;;;4.40;3.70;;;;;;;21.68;23.83;95772.47;4990267;28;20422;-72
2023/06/13 10:11:05;;;;;;;3.73;3.40;;;;;;;21.78;23.54;95771.44;4990091;28;20845;-73
2023/06/13 10:13:39;;;;;;;10.13;4.37;;;;;;;21.46;24.22;95779.94;4989575;28;20898;-73
2023/06/13 10:16:08;;;;;;;6.20;3.90;;;;;;;21.39;23.35;95761.97;4990151;28;20912;-72
2023/06/13 10:18:38;;;;;;;5.00;3.70;;;;;;;21.39;23.90;95757.47;4990108;28;20829;-73
2023/06/13 10:21:06;;;;;;;5.80;3.80;;;;;;;21.02;23.95;95769.00;4990276;28;20940;-72
2023/06/13 10:23:36;;;;;;;4.30;3.90;;;;;;;21.49;24.11;95760.94;4990193;28;20511;-72
2023/06/13 10:26:08;;;;;;;4.60;4.17;;;;;;;21.14;23.84;95762.53;4990570;28;20499;-71
2023/06/13 10:28:40;;;;;;;7.03;3.77;;;;;;;21.35;24.34;95767.59;4990282;28;20434;-72
2023/06/13 10:31:11;;;;;;;6.17;3.87;;;;;;;21.38;23.83;95760.25;4990267;28;20579;-73
2023/06/13 10:33:41;;;;;;;5.40;3.90;;;;;;;21.14;24.37;95761.66;4989818;28;20420;-73
2023/06/13 10:36:17;;;;;;;4.87;3.90;;;;;;;21.11;24.59;95748.63;4990685;28;20823;-70
2023/06/13 10:39:04;;;;;;;9.70;4.80;;;;;;;21.12;24.29;95767.16;4990946;28;20495;-70
2023/06/13 10:41:57;;;;;;;11.87;4.77;;;;;;;21.30;23.87;95763.69;4999001;28;20450;-72
2023/06/13 10:44:34;;;;;;;8.03;3.83;;;;;;;21.40;23.73;95766.34;4989840;28;20434;-71
2023/06/13 10:47:00;;;;;;;6.00;3.97;;;;;;;21.46;24.46;95774.59;4990362;28;20846;-71
2023/06/13 10:49:35;;;;;;;4.60;4.20;;;;;;;21.00;24.84;95770.16;4991258;28;20412;-71
2023/06/13 10:52:02;;;;;;;7.13;3.90;;;;;;;21.12;25.17;95761.81;4990024;28;20621;-72
2023/06/13 10:54:28;;;;;;;4.83;4.10;;;;;;;21.28;25.15;95776.34;4990387;28;20515;-72
2023/06/13 10:57:00;;;;;;;7.83;4.10;;;;;;;21.14;25.17;95770.53;4991853;28;20492;-73
2023/06/13 10:59:34;;;;;;;6.90;4.17;;;;;;;21.42;24.78;95751.00;4990195;28;20218;-72
2023/06/13 11:02:00;;;;;;;5.20;3.83;;;;;;;21.38;25.35;95752.25;4989522;28;20407;-72
2023/06/13 11:04:28;;;;;;;6.40;4.20;;;;;;;21.50;26.00;95756.44;4990148;28;20424;-72
2023/06/13 11:07:33;;;;;;;13.93;4.20;;;;;;;21.54;24.95;95750.66;4989627;28;20438;-72
2023/06/13 11:10:03;;;;;;;8.53;3.90;;;;;;;21.43;24.99;95752.72;4997758;28;20439;-72
2023/06/13 11:12:29;;;;;;;4.40;3.70;;;;;;;21.45;25.06;95750.69;5011283;28;20388;-73
2023/06/13 11:14:59;;;;;;;4.47;4.03;;;;;;;21.72;25.14;95731.97;5008054;28;20448;-72
2023/06/13 11:17:26;;;;;;;11.00;4.33;;;;;;;21.80;24.75;95735.69;5005895;28;20486;-70
2023/06/13 11:19:53;;;;;;;7.13;4.00;;;;;;;21.81;24.45;95750.75;5004992;28;20427;-72
2023/06/13 11:22:21;;;;;;;6.43;3.90;;;;;;;21.71;23.83;95730.31;4996571;28;20447;-72
2023/06/13 11:24:48;;;;;;;17.83;5.40;;;;;;;21.89;24.59;95746.31;4993952;28;20420;-72
2023/06/13 11:27:16;;;;;;;6.50;4.70;;;;;;;21.89;24.34;95742.81;4995920;28;20416;-73
2023/06/13 11:29:43;;;;;;;5.00;3.93;;;;;;;21.93;24.22;95744.19;4995565;28;20828;-72
2023/06/13 11:32:11;;;;;;;11.87;4.40;;;;;;;22.07;23.82;95737.47;4991831;28;20909;-72
2023/06/13 11:34:41;;;;;;;13.37;4.60;;;;;;;22.11;23.05;95737.00;4990567;28;20446;-71